Time;durP1;ratioP1;P1;durP2;ratioP2;P2;SDS_P1;SDS_P2;PMS_P1;PMS_P2;Temp;Humidity;BMP_temperature;BMP_pressure;BME280_temperature;BME280_humidity;BME280_pressure;Samples;Min_cycle;Max_cycle;Signal;HPM_P1;HPM_P2
2022/03/27 00:00:26;;;;;;;5.77;3.57;;;5.90;79.00;;;;;;5075092;28;20518;-68
2022/03/27 00:02:52;;;;;;;5.93;3.70;;;5.90;79.10;;;;;;5076615;28;20411;-68
2022/03/27 00:05:18;;;;;;;7.30;4.47;;;5.90;78.70;;;;;;5124582;27;20039;-68
2022/03/27 00:07:43;;;;;;;4.70;3.37;;;6.00;78.60;;;;;;5095071;28;20541;-68
2022/03/27 00:10:09;;;;;;;7.17;3.87;;;5.90;78.60;;;;;;5125383;27;20564;-68
2022/03/27 00:12:35;;;;;;;6.13;3.70;;;5.90;78.70;;;;;;5095019;28;20364;-68
2022/03/27 00:15:02;;;;;;;6.72;3.80;;;6.00;78.60;;;;;;5129736;27;20324;-68
2022/03/27 00:17:32;;;;;;;8.27;4.15;;;6.00;78.60;;;;;;5086281;28;20564;-68
2022/03/27 00:20:00;;;;;;;6.03;4.10;;;6.00;78.60;;;;;;5090772;28;20066;-67
2022/03/27 00:22:26;;;;;;;5.28;4.05;;;5.90;78.80;;;;;;5102189;28;20040;-68
2022/03/27 00:24:51;;;;;;;7.20;4.40;;;5.90;78.80;;;;;;5061683;28;20049;-68
2022/03/27 00:27:17;;;;;;;6.90;4.00;;;5.80;78.70;;;;;;5080066;28;20548;-68
2022/03/27 00:29:43;;;;;;;7.50;4.10;;;5.70;78.60;;;;;;5097036;28;20556;-68
2022/03/27 00:32:08;;;;;;;7.23;4.20;;;5.70;78.60;;;;;;5066799;28;20036;-68
2022/03/27 00:34:34;;;;;;;7.70;4.47;;;5.60;78.60;;;;;;5095211;28;20040;-68
2022/03/27 00:37:00;;;;;;;7.13;4.37;;;5.60;78.60;;;;;;5090962;28;20818;-68
2022/03/27 00:39:26;;;;;;;8.70;4.97;;;5.60;78.70;;;;;;5085249;28;20756;-68
2022/03/27 00:41:51;;;;;;;8.67;4.57;;;5.60;78.80;;;;;;5106685;28;20035;-68
2022/03/27 00:44:17;;;;;;;10.83;5.53;;;5.70;78.70;;;;;;5109175;27;20093;-68
2022/03/27 00:46:43;;;;;;;6.27;4.50;;;5.70;78.70;;;;;;5104070;27;20042;-68
2022/03/27 00:49:09;;;;;;;10.07;5.80;;;5.70;78.60;;;;;;5093423;28;20312;-68
2022/03/27 00:51:35;;;;;;;8.40;4.80;;;5.80;78.50;;;;;;5075148;28;20680;-68
2022/03/27 00:54:01;;;;;;;7.33;4.80;;;5.80;78.60;;;;;;5090719;28;20118;-68
2022/03/27 00:56:26;;;;;;;8.33;4.97;;;5.80;78.40;;;;;;5107010;28;20500;-68
2022/03/27 00:58:52;;;;;;;8.07;5.20;;;5.90;78.30;;;;;;5107058;28;20028;-68
2022/03/27 01:01:24;;;;;;;10.20;5.83;;;5.90;78.20;;;;;;5073826;28;20039;-68
2022/03/27 01:03:54;;;;;;;10.68;5.88;;;5.90;78.30;;;;;;5093446;28;20043;-67
2022/03/27 01:06:31;;;;;;;9.73;5.60;;;5.90;78.50;;;;;;5106657;28;20055;-67
2022/03/27 01:11:41;;;;;;;13.25;6.38;;;5.90;78.50;;;;;;5082345;28;20521;-67
2022/03/27 01:14:09;;;;;;;10.67;6.60;;;5.90;78.40;;;;;;5107438;27;20118;-67
2022/03/27 01:16:55;;;;;;;12.00;7.20;;;5.90;78.40;;;;;;5089258;28;20039;-67
2022/03/27 01:19:21;;;;;;;13.68;7.70;;;6.00;78.50;;;;;;5093950;28;20032;-67
2022/03/27 01:21:47;;;;;;;14.00;7.53;;;5.90;78.50;;;;;;5094808;28;20648;-67
2022/03/27 01:24:16;;;;;;;14.27;8.30;;;5.90;78.40;;;;;;5123386;27;20504;-67
2022/03/27 01:26:42;;;;;;;16.67;9.27;;;5.90;78.30;;;;;;5088621;28;20809;-67
2022/03/27 01:29:08;;;;;;;14.75;8.50;;;5.90;78.20;;;;;;5082471;28;20417;-67
2022/03/27 01:31:34;;;;;;;14.23;8.33;;;5.90;78.50;;;;;;5087811;28;20043;-67
2022/03/27 01:34:00;;;;;;;14.38;8.40;;;5.90;78.50;;;;;;5105961;28;20655;-67
2022/03/27 01:36:34;;;;;;;14.35;8.25;;;5.90;78.60;;;;;;5087595;28;20032;-68
2022/03/27 01:39:01;;;;;;;19.63;9.07;;;5.90;78.70;;;;;;5115676;27;20507;-68
2022/03/27 01:41:26;;;;;;;13.73;8.60;;;5.90;78.60;;;;;;5122978;27;20430;-68
2022/03/27 01:43:52;;;;;;;13.30;8.23;;;6.00;78.70;;;;;;5056610;27;20464;-68
2022/03/27 01:46:19;;;;;;;14.93;8.83;;;6.00;78.80;;;;;;5106088;28;20103;-68
2022/03/27 01:48:45;;;;;;;13.43;8.63;;;6.00;78.90;;;;;;5073652;28;20063;-68
2022/03/27 01:51:11;;;;;;;12.73;6.95;;;6.00;79.10;;;;;;5105922;27;20054;-68
2022/03/27 01:53:40;;;;;;;14.33;6.90;;;6.00;79.00;;;;;;5097283;28;20515;-68
2022/03/27 01:56:07;;;;;;;10.95;6.72;;;6.00;79.10;;;;;;5105220;28;20313;-68
2022/03/27 01:58:37;;;;;;;12.57;6.07;;;6.00;79.20;;;;;;5097234;27;20106;-68
2022/03/27 02:01:03;;;;;;;15.30;5.80;;;6.00;79.10;;;;;;5122352;27;20044;-67
2022/03/27 02:03:29;;;;;;;14.63;5.13;;;6.00;79.10;;;;;;5080931;28;20412;-67
2022/03/27 02:05:55;;;;;;;13.53;5.83;;;6.00;79.10;;;;;;5122909;27;20588;-67
2022/03/27 02:08:22;;;;;;;14.95;5.43;;;6.00;79.20;;;;;;5092178;28;20044;-67
2022/03/27 02:10:48;;;;;;;12.80;5.43;;;6.00;79.30;;;;;;5084766;28;20051;-66
2022/03/27 02:13:18;;;;;;;13.45;5.35;;;6.00;79.30;;;;;;5094537;28;20134;-67
2022/03/27 02:15:47;;;;;;;17.00;5.95;;;6.00;79.60;;;;;;5084420;27;20067;-67
2022/03/27 02:18:14;;;;;;;15.60;5.88;;;6.00;79.90;;;;;;5078036;27;20491;-67
2022/03/27 02:20:40;;;;;;;16.98;6.50;;;6.00;79.80;;;;;;5123688;27;20039;-67
2022/03/27 02:23:09;;;;;;;16.58;6.90;;;6.00;80.00;;;;;;5107926;27;20126;-67
2022/03/27 02:25:35;;;;;;;12.65;6.22;;;6.00;80.10;;;;;;5094755;28;20097;-67
2022/03/27 02:28:02;;;;;;;17.20;7.50;;;6.00;80.20;;;;;;5095580;27;20043;-67
2022/03/27 02:30:27;;;;;;;17.55;6.75;;;6.00;80.10;;;;;;5083380;28;20567;-67
2022/03/27 02:32:53;;;;;;;16.73;7.10;;;6.00;80.00;;;;;;5104039;28;20146;-67
2022/03/27 02:35:19;;;;;;;14.67;7.10;;;6.00;80.20;;;;;;5088358;28;20495;-67
2022/03/27 02:37:45;;;;;;;20.13;7.60;;;6.00;80.30;;;;;;5070960;28;20044;-67
2022/03/27 02:40:11;;;;;;;16.10;6.30;;;6.10;80.10;;;;;;5057960;28;20513;-67
2022/03/27 02:42:36;;;;;;;18.80;6.72;;;6.10;80.20;;;;;;5093850;28;20039;-67
2022/03/27 02:45:05;;;;;;;13.80;6.47;;;6.10;80.10;;;;;;5075517;28;20044;-67
2022/03/27 02:47:34;;;;;;;15.50;6.57;;;6.10;80.20;;;;;;5088546;28;20054;-67
2022/03/27 02:50:01;;;;;;;14.75;6.68;;;6.10;80.40;;;;;;5084958;27;20429;-67
2022/03/27 02:52:26;;;;;;;21.15;7.88;;;6.10;80.10;;;;;;5074901;28;20631;-67
2022/03/27 02:54:52;;;;;;;18.80;7.43;;;6.10;80.20;;;;;;5132743;27;20046;-67
2022/03/27 02:57:18;;;;;;;14.43;6.97;;;6.10;80.20;;;;;;5122822;27;20062;-67
2022/03/27 02:59:44;;;;;;;21.23;7.60;;;6.10;80.20;;;;;;5104710;28;20036;-67
2022/03/27 03:02:10;;;;;;;16.30;7.63;;;6.10;80.10;;;;;;5086130;28;20281;-67
2022/03/27 03:04:36;;;;;;;18.00;7.23;;;6.10;80.10;;;;;;5105290;28;20308;-67
2022/03/27 03:07:02;;;;;;;16.87;6.77;;;6.10;79.90;;;;;;5092591;28;20076;-67
2022/03/27 03:09:27;;;;;;;15.17;6.23;;;6.10;80.10;;;;;;5109604;28;20047;-67
2022/03/27 03:11:53;;;;;;;14.90;6.50;;;6.10;79.90;;;;;;5126355;27;20031;-67
2022/03/27 03:14:19;;;;;;;14.87;5.83;;;6.10;79.90;;;;;;5102049;27;20112;-67
2022/03/27 03:16:46;;;;;;;20.90;6.63;;;6.00;80.00;;;;;;5113713;27;20292;-67
2022/03/27 03:19:12;;;;;;;17.05;6.13;;;6.00;79.90;;;;;;5129660;27;20043;-67
2022/03/27 03:21:40;;;;;;;18.50;6.53;;;6.00;79.60;;;;;;5096530;28;20437;-67
2022/03/27 03:24:07;;;;;;;18.63;6.47;;;5.90;79.70;;;;;;5085485;27;20138;-67
2022/03/27 03:26:33;;;;;;;22.45;6.53;;;5.80;79.50;;;;;;5087713;28;20051;-67
2022/03/27 03:28:59;;;;;;;17.50;6.60;;;5.70;79.50;;;;;;5097669;28;20514;-67
2022/03/27 03:31:24;;;;;;;15.63;5.83;;;5.60;79.60;;;;;;5101362;28;20441;-67
2022/03/27 03:33:50;;;;;;;25.50;7.10;;;5.50;79.50;;;;;;5079031;28;20040;-67
2022/03/27 03:36:16;;;;;;;15.83;5.10;;;5.40;79.70;;;;;;5124696;27;20102;-67
2022/03/27 03:38:42;;;;;;;19.97;5.77;;;5.40;79.70;;;;;;5095674;27;20107;-67
2022/03/27 03:41:08;;;;;;;12.68;4.72;;;5.30;79.70;;;;;;5130296;27;20137;-67
2022/03/27 03:43:36;;;;;;;15.23;5.78;;;5.20;79.90;;;;;;5082167;28;20127;-67
2022/03/27 03:46:05;;;;;;;20.00;5.90;;;5.10;80.00;;;;;;5092798;28;20502;-67
2022/03/27 03:48:32;;;;;;;15.27;6.18;;;5.00;79.90;;;;;;5100235;28;20043;-67
2022/03/27 03:50:58;;;;;;;13.45;4.93;;;4.90;80.00;;;;;;5124944;27;20056;-67
2022/03/27 03:53:25;;;;;;;21.23;6.10;;;4.90;79.90;;;;;;5098147;27;20035;-67
2022/03/27 03:55:51;;;;;;;21.60;6.20;;;4.70;79.90;;;;;;5082956;28;20043;-67
2022/03/27 03:58:17;;;;;;;18.67;5.93;;;4.70;80.00;;;;;;5099662;27;20519;-67
2022/03/27 04:00:43;;;;;;;17.83;5.43;;;4.60;80.10;;;;;;5104967;28;20522;-67
2022/03/27 04:03:09;;;;;;;20.20;6.75;;;4.50;80.10;;;;;;5096639;27;20049;-67
2022/03/27 04:05:35;;;;;;;18.75;6.53;;;4.40;80.90;;;;;;5089164;28;20051;-68
2022/03/27 04:08:01;;;;;;;21.17;6.70;;;4.30;80.70;;;;;;5092753;28;20100;-68
2022/03/27 04:10:28;;;;;;;18.57;7.23;;;4.20;80.60;;;;;;5106474;27;20122;-68
2022/03/27 04:12:54;;;;;;;16.23;6.22;;;4.20;81.10;;;;;;5104820;28;20040;-68
2022/03/27 04:15:19;;;;;;;18.23;6.00;;;4.10;81.30;;;;;;5092592;28;20042;-68
2022/03/27 04:17:48;;;;;;;19.83;6.43;;;4.00;81.10;;;;;;5078983;27;20043;-68
2022/03/27 04:20:14;;;;;;;20.30;6.30;;;3.90;80.90;;;;;;5084063;27;20399;-68
2022/03/27 04:22:41;;;;;;;8.80;4.90;;;3.80;81.10;;;;;;5096752;28;20078;-67
2022/03/27 04:25:07;;;;;;;22.08;6.55;;;3.80;81.00;;;;;;5104001;27;20065;-67
2022/03/27 04:27:34;;;;;;;22.45;6.72;;;3.70;81.20;;;;;;5066626;27;20055;-67
2022/03/27 04:30:01;;;;;;;23.38;6.35;;;3.70;81.70;;;;;;5115403;27;20085;-67
2022/03/27 04:32:27;;;;;;;17.55;6.28;;;3.70;81.60;;;;;;5111301;27;20104;-67
2022/03/27 04:34:52;;;;;;;20.47;6.70;;;3.70;81.50;;;;;;5110205;27;20437;-67
2022/03/27 04:37:18;;;;;;;16.97;5.90;;;3.60;81.70;;;;;;5080780;28;20032;-67
2022/03/27 04:39:44;;;;;;;18.07;6.60;;;3.70;81.70;;;;;;5103205;28;20119;-67
2022/03/27 04:42:09;;;;;;;15.47;4.97;;;3.70;81.70;;;;;;5083910;28;20562;-67
2022/03/27 04:44:35;;;;;;;18.30;6.33;;;3.60;81.60;;;;;;5095952;27;20042;-67
2022/03/27 04:47:01;;;;;;;14.30;5.63;;;3.60;81.90;;;;;;5086885;28;20092;-67
2022/03/27 04:49:27;;;;;;;15.55;4.93;;;3.50;82.00;;;;;;5099072;28;20044;-67
2022/03/27 04:51:53;;;;;;;14.80;5.37;;;3.40;81.90;;;;;;5081306;28;20135;-67
2022/03/27 04:54:19;;;;;;;18.23;6.23;;;3.40;82.10;;;;;;5098268;28;20036;-67
2022/03/27 04:56:45;;;;;;;18.60;6.07;;;3.40;82.20;;;;;;5085953;28;20035;-67
2022/03/27 04:59:11;;;;;;;14.13;5.30;;;3.40;82.30;;;;;;5090886;27;20514;-67
2022/03/27 05:01:36;;;;;;;18.90;5.63;;;3.40;82.20;;;;;;5075116;28;20273;-67
2022/03/27 05:04:02;;;;;;;16.97;6.13;;;3.30;82.30;;;;;;5091236;27;20289;-67
2022/03/27 05:06:29;;;;;;;16.63;6.30;;;3.30;82.40;;;;;;5102128;28;20092;-67
2022/03/27 05:08:58;;;;;;;17.45;5.30;;;3.30;82.70;;;;;;5075837;28;20126;-67
2022/03/27 05:11:30;;;;;;;12.35;5.38;;;3.30;82.80;;;;;;5075792;28;20092;-67
2022/03/27 05:13:56;;;;;;;9.65;5.35;;;3.30;82.80;;;;;;5106534;27;20048;-67
2022/03/27 05:16:21;;;;;;;10.47;4.77;;;3.30;82.70;;;;;;5079054;28;20036;-67
2022/03/27 05:18:48;;;;;;;14.20;4.57;;;3.30;82.80;;;;;;5106936;28;20285;-67
2022/03/27 05:21:15;;;;;;;12.77;4.65;;;3.30;82.70;;;;;;5085036;28;20062;-67
2022/03/27 05:23:42;;;;;;;12.90;3.83;;;3.30;82.70;;;;;;5103216;28;20047;-67
2022/03/27 05:26:08;;;;;;;9.82;3.63;;;3.20;82.80;;;;;;5085771;27;20427;-67
2022/03/27 05:28:34;;;;;;;7.07;3.03;;;3.20;82.80;;;;;;5090680;28;20058;-67
2022/03/27 05:31:03;;;;;;;10.65;4.13;;;3.10;82.70;;;;;;5130310;27;20541;-67
2022/03/27 05:33:29;;;;;;;6.80;3.45;;;3.10;82.80;;;;;;5122836;27;20035;-67
2022/03/27 05:35:55;;;;;;;8.83;3.10;;;3.10;82.80;;;;;;5122947;27;20067;-67
2022/03/27 05:38:20;;;;;;;6.47;3.00;;;3.00;82.90;;;;;;5079981;27;20035;-67
2022/03/27 05:40:47;;;;;;;7.43;3.33;;;3.00;82.90;;;;;;5077619;28;20054;-67
2022/03/27 05:43:12;;;;;;;7.18;3.45;;;3.00;83.20;;;;;;5109580;27;20039;-68
2022/03/27 05:45:39;;;;;;;6.93;2.90;;;3.00;83.30;;;;;;5099499;28;20065;-67
2022/03/27 05:48:06;;;;;;;6.43;3.22;;;2.90;83.30;;;;;;5122590;27;20043;-67
2022/03/27 05:50:31;;;;;;;5.28;2.53;;;2.90;83.30;;;;;;5101200;28;20047;-67
2022/03/27 05:52:57;;;;;;;6.13;2.90;;;2.90;83.20;;;;;;5099654;28;20426;-67
2022/03/27 05:55:25;;;;;;;4.07;2.30;;;2.90;83.40;;;;;;5087084;28;20043;-67
2022/03/27 05:57:51;;;;;;;7.30;2.72;;;2.90;83.30;;;;;;5079669;27;20100;-67
2022/03/27 06:00:21;;;;;;;8.57;2.85;;;2.90;83.30;;;;;;5116607;27;20035;-67
2022/03/27 06:02:48;;;;;;;4.18;2.42;;;2.90;83.50;;;;;;5087005;28;20441;-67
2022/03/27 06:05:15;;;;;;;7.53;2.72;;;3.00;83.70;;;;;;5084524;28;20160;-67
2022/03/27 06:07:52;;;;;;;9.90;2.65;;;3.00;83.80;;;;;;5111965;27;20441;-67
2022/03/27 06:10:22;;;;;;;7.70;2.80;;;3.10;83.70;;;;;;5101462;28;20070;-67
2022/03/27 06:12:48;;;;;;;7.13;2.65;;;3.20;83.60;;;;;;5093865;27;20035;-67
2022/03/27 06:15:14;;;;;;;10.00;3.35;;;3.20;83.70;;;;;;5098556;28;20049;-67
2022/03/27 06:17:42;;;;;;;9.00;2.75;;;3.30;83.70;;;;;;5095214;28;20039;-67
2022/03/27 06:20:09;;;;;;;9.73;3.15;;;3.30;83.50;;;;;;5095801;27;20047;-67
2022/03/27 06:22:35;;;;;;;14.48;2.97;;;3.40;83.50;;;;;;5082643;27;20039;-67
2022/03/27 06:25:02;;;;;;;11.90;3.72;;;3.50;83.40;;;;;;5119403;27;20043;-67
2022/03/27 06:27:28;;;;;;;10.75;3.03;;;3.60;83.30;;;;;;5093336;27;20076;-67
2022/03/27 06:29:53;;;;;;;10.82;2.95;;;3.60;83.30;;;;;;5056392;28;20138;-68
2022/03/27 06:32:19;;;;;;;13.03;3.67;;;3.70;83.20;;;;;;5100611;28;20119;-68
2022/03/27 06:34:45;;;;;;;17.08;3.67;;;3.80;83.30;;;;;;5077024;27;20082;-68
2022/03/27 06:37:11;;;;;;;18.63;4.03;;;3.90;83.20;;;;;;5073851;28;20082;-67
2022/03/27 06:39:36;;;;;;;21.43;4.20;;;4.00;83.10;;;;;;5058541;28;20100;-67
2022/03/27 06:42:02;;;;;;;15.53;3.93;;;4.10;83.30;;;;;;5087686;27;20897;-67
2022/03/27 06:44:28;;;;;;;18.10;4.50;;;4.20;83.20;;;;;;5057597;27;20474;-68
2022/03/27 06:46:54;;;;;;;17.33;4.13;;;4.40;83.30;;;;;;5090140;28;20047;-68
2022/03/27 06:49:20;;;;;;;23.13;5.37;;;4.50;83.10;;;;;;5105492;28;20039;-67
2022/03/27 06:51:46;;;;;;;21.87;4.63;;;4.60;83.10;;;;;;5073671;28;20058;-67
2022/03/27 06:54:11;;;;;;;26.03;5.43;;;4.80;83.20;;;;;;5073787;28;20031;-67
2022/03/27 06:56:41;;;;;;;18.27;4.73;;;4.90;83.20;;;;;;5075881;28;20034;-67
2022/03/27 06:59:06;;;;;;;33.85;6.07;;;5.00;83.10;;;;;;5121949;27;20061;-67
2022/03/27 07:04:17;;;;;;;29.08;5.30;;;5.30;83.00;;;;;;5086908;28;20663;-67
2022/03/27 07:06:43;;;;;;;28.33;6.27;;;5.40;82.80;;;;;;5074134;28;20036;-67
2022/03/27 07:09:10;;;;;;;35.25;5.50;;;5.60;82.50;;;;;;5074794;28;20410;-67
2022/03/27 07:11:36;;;;;;;41.63;6.30;;;5.70;82.20;;;;;;5122833;27;20610;-68
2022/03/27 07:14:03;;;;;;;31.27;6.47;;;5.80;82.20;;;;;;5070051;28;20050;-68
2022/03/27 07:16:30;;;;;;;38.80;6.32;;;6.00;82.20;;;;;;5092078;28;20047;-67
2022/03/27 07:18:56;;;;;;;36.33;6.68;;;6.10;81.90;;;;;;5097451;28;20043;-67
2022/03/27 07:21:21;;;;;;;34.33;6.23;;;6.20;81.60;;;;;;5104807;28;20049;-67
2022/03/27 07:23:47;;;;;;;35.63;6.33;;;6.30;81.60;;;;;;5104233;28;20046;-67
2022/03/27 07:26:13;;;;;;;37.03;7.10;;;6.40;81.60;;;;;;5098538;28;20090;-67
2022/03/27 07:28:39;;;;;;;36.88;7.25;;;6.60;81.50;;;;;;5121906;27;20047;-67
2022/03/27 07:31:05;;;;;;;27.23;6.07;;;6.70;81.20;;;;;;5088605;28;20049;-67
2022/03/27 07:33:31;;;;;;;36.70;6.20;;;6.90;81.10;;;;;;5108077;28;20404;-67
2022/03/27 07:35:57;;;;;;;41.13;6.47;;;7.10;80.80;;;;;;5093919;28;20715;-67
2022/03/27 07:38:22;;;;;;;38.55;6.07;;;7.20;80.60;;;;;;5122239;27;20035;-67
2022/03/27 07:40:48;;;;;;;36.70;6.67;;;7.40;80.10;;;;;;5103916;28;20055;-67
2022/03/27 07:43:14;;;;;;;39.20;7.33;;;7.50;79.90;;;;;;5090553;28;20394;-68
2022/03/27 07:45:40;;;;;;;37.03;6.67;;;7.50;79.60;;;;;;5089706;28;20100;-67
2022/03/27 07:48:05;;;;;;;33.27;5.87;;;7.60;79.50;;;;;;5100269;28;20040;-68
2022/03/27 07:50:32;;;;;;;35.17;6.67;;;7.70;79.50;;;;;;5074073;28;20040;-67
2022/03/27 07:53:03;;;;;;;41.47;7.05;;;7.80;78.90;;;;;;5115849;27;20027;-67
2022/03/27 07:55:29;;;;;;;36.40;5.78;;;7.90;78.50;;;;;;5133394;27;20072;-67
2022/03/27 07:57:55;;;;;;;34.60;6.07;;;7.90;78.20;;;;;;5063193;27;20336;-67
2022/03/27 08:00:21;;;;;;;38.85;7.13;;;8.10;77.90;;;;;;5107205;27;20400;-67
2022/03/27 08:02:47;;;;;;;34.03;5.93;;;8.20;77.80;;;;;;5092538;27;20043;-68
2022/03/27 08:05:13;;;;;;;33.67;6.07;;;8.40;77.70;;;;;;5084275;27;20138;-67
2022/03/27 08:07:39;;;;;;;31.35;5.55;;;8.50;77.30;;;;;;5128340;27;20227;-67
2022/03/27 08:10:05;;;;;;;30.42;6.40;;;8.50;76.90;;;;;;5099280;27;20040;-67
2022/03/27 08:12:31;;;;;;;30.00;6.50;;;8.60;76.50;;;;;;5123782;27;20043;-67
2022/03/27 08:14:57;;;;;;;28.53;5.80;;;8.70;76.40;;;;;;5092389;27;20036;-67
2022/03/27 08:17:23;;;;;;;39.80;7.00;;;8.70;76.10;;;;;;5128467;27;20391;-67
2022/03/27 08:19:49;;;;;;;36.00;7.18;;;8.80;74.90;;;;;;5102623;27;20049;-67
2022/03/27 08:22:16;;;;;;;34.50;6.30;;;8.80;74.80;;;;;;5095301;28;20050;-67
2022/03/27 08:24:42;;;;;;;33.15;6.55;;;8.80;74.40;;;;;;5090264;28;20039;-68
2022/03/27 08:27:08;;;;;;;34.10;6.43;;;8.80;74.50;;;;;;5071742;28;20103;-68
2022/03/27 08:29:37;;;;;;;32.13;5.70;;;8.90;74.80;;;;;;5096056;28;20040;-68
2022/03/27 08:32:05;;;;;;;27.70;6.13;;;9.00;74.50;;;;;;5086291;28;20044;-68
2022/03/27 08:34:33;;;;;;;33.55;6.57;;;9.00;73.60;;;;;;5069752;28;20043;-67
2022/03/27 08:37:01;;;;;;;30.20;6.28;;;9.10;73.30;;;;;;5086464;28;20079;-67
2022/03/27 08:39:27;;;;;;;34.60;6.78;;;9.20;73.10;;;;;;5087424;28;20654;-68
2022/03/27 08:41:54;;;;;;;36.15;6.30;;;9.20;73.10;;;;;;5086485;28;20044;-68
2022/03/27 08:44:21;;;;;;;35.20;6.60;;;9.40;72.80;;;;;;5121552;27;20040;-68
2022/03/27 08:46:50;;;;;;;31.10;6.70;;;9.50;72.80;;;;;;5092214;28;20035;-68
2022/03/27 08:49:39;;;;;;;31.50;7.20;;;9.60;72.20;;;;;;5124395;27;20048;-68
2022/03/27 08:52:17;;;;;;;31.08;6.78;;;9.70;71.60;;;;;;5077914;28;20070;-68
2022/03/27 08:55:00;;;;;;;37.63;6.35;;;9.70;71.50;;;;;;5087009;28;20066;-68
2022/03/27 08:57:35;;;;;;;27.52;6.57;;;9.80;71.40;;;;;;5070988;28;20027;-68
2022/03/27 09:00:01;;;;;;;36.85;6.70;;;9.90;71.60;;;;;;5107887;27;20093;-68
2022/03/27 09:02:27;;;;;;;35.17;6.75;;;10.10;71.60;;;;;;5084795;28;20044;-68
2022/03/27 09:04:54;;;;;;;38.73;7.60;;;10.20;70.90;;;;;;5085788;28;20489;-68
2022/03/27 09:07:29;;;;;;;36.85;6.85;;;10.20;71.00;;;;;;5130537;27;20035;-68
2022/03/27 09:09:58;;;;;;;33.45;5.97;;;10.30;70.50;;;;;;5073150;28;20430;-68
2022/03/27 09:12:24;;;;;;;28.88;6.00;;;10.40;70.60;;;;;;5075097;28;20581;-68
2022/03/27 09:14:50;;;;;;;36.47;6.63;;;10.40;70.10;;;;;;5078246;28;20036;-68
2022/03/27 09:17:16;;;;;;;26.75;6.25;;;10.50;69.60;;;;;;5088300;28;20040;-68
2022/03/27 09:19:47;;;;;;;33.53;6.73;;;10.50;69.20;;;;;;5077050;28;20541;-68
2022/03/27 09:22:21;;;;;;;36.00;7.10;;;10.60;69.30;;;;;;5094853;28;20028;-68
2022/03/27 09:25:01;;;;;;;32.40;6.07;;;10.80;69.10;;;;;;5069373;28;20039;-68
2022/03/27 09:27:33;;;;;;;31.60;5.45;;;10.90;68.70;;;;;;5117566;27;20056;-68
2022/03/27 09:30:09;;;;;;;30.85;6.43;;;10.90;68.00;;;;;;5108509;27;20043;-68
2022/03/27 09:32:48;;;;;;;30.92;5.35;;;11.00;68.20;;;;;;5089703;28;20070;-68
2022/03/27 09:35:17;;;;;;;25.58;5.22;;;11.10;67.60;;;;;;5126712;27;20028;-68
2022/03/27 09:37:46;;;;;;;20.17;4.47;;;11.20;67.10;;;;;;5057704;28;20080;-68
2022/03/27 09:40:13;;;;;;;25.52;5.80;;;11.20;64.90;;;;;;5122193;27;20604;-68
2022/03/27 09:42:40;;;;;;;23.42;5.15;;;11.30;64.50;;;;;;5093423;28;20535;-68
2022/03/27 09:45:21;;;;;;;24.38;5.15;;;11.30;64.80;;;;;;5089566;28;20032;-68
2022/03/27 09:47:52;;;;;;;21.92;5.15;;;11.40;63.00;;;;;;5081750;28;20277;-68
2022/03/27 09:50:34;;;;;;;25.63;5.10;;;11.50;63.30;;;;;;5052001;28;20510;-68
2022/03/27 09:53:24;;;;;;;28.25;5.60;;;11.50;63.50;;;;;;5086311;28;20361;-68
2022/03/27 09:55:57;;;;;;;25.95;5.90;;;11.60;63.20;;;;;;5084022;28;20040;-68
2022/03/27 09:58:44;;;;;;;23.20;5.38;;;11.80;61.80;;;;;;5083826;28;20150;-68
2022/03/27 10:01:12;;;;;;;19.08;4.03;;;11.90;61.80;;;;;;5104778;27;20039;-68
2022/03/27 10:04:16;;;;;;;21.48;3.60;;;11.90;61.10;;;;;;5087379;28;20044;-68
2022/03/27 10:06:42;;;;;;;19.63;4.10;;;12.00;60.10;;;;;;5084539;28;20064;-68
2022/03/27 10:09:13;;;;;;;20.15;3.65;;;12.10;61.00;;;;;;5124217;27;20032;-68
2022/03/27 10:11:41;;;;;;;15.23;3.30;;;12.10;59.40;;;;;;5079913;28;20039;-68
2022/03/27 10:14:07;;;;;;;14.32;3.50;;;12.20;58.00;;;;;;5054301;28;20040;-68
2022/03/27 10:16:46;;;;;;;14.43;4.10;;;12.20;57.80;;;;;;5103497;27;20035;-68
2022/03/27 10:19:29;;;;;;;14.88;3.10;;;12.30;56.30;;;;;;5072689;28;20042;-68
2022/03/27 10:21:55;;;;;;;14.73;3.47;;;12.40;54.90;;;;;;5121518;27;20113;-68
2022/03/27 10:24:23;;;;;;;13.10;3.00;;;12.40;55.50;;;;;;5069775;28;20316;-68
2022/03/27 10:26:50;;;;;;;16.00;2.97;;;12.50;55.20;;;;;;5092537;28;20052;-68
2022/03/27 10:29:16;;;;;;;7.73;2.30;;;12.60;54.30;;;;;;5066573;28;20305;-68
2022/03/27 10:31:42;;;;;;;9.43;1.90;;;12.60;50.90;;;;;;5097863;28;20873;-68
2022/03/27 10:34:11;;;;;;;8.90;2.57;;;12.70;49.30;;;;;;5099694;28;20419;-68
2022/03/27 10:36:57;;;;;;;12.97;3.43;;;12.70;50.30;;;;;;5072738;28;20277;-68
2022/03/27 10:39:35;;;;;;;10.98;2.45;;;12.80;50.70;;;;;;5070685;28;20281;-68
2022/03/27 10:42:25;;;;;;;11.17;2.90;;;12.90;51.20;;;;;;5094992;28;20031;-69
2022/03/27 10:44:53;;;;;;;14.80;2.57;;;13.00;48.50;;;;;;5067682;28;20322;-69
2022/03/27 10:47:21;;;;;;;11.20;2.00;;;12.90;49.70;;;;;;5091512;28;20673;-68
2022/03/27 10:50:02;;;;;;;13.07;2.63;;;13.00;48.60;;;;;;5083188;28;20282;-68
2022/03/27 10:52:30;;;;;;;10.23;2.63;;;13.00;48.10;;;;;;5084709;28;20333;-68
2022/03/27 10:55:11;;;;;;;14.23;2.50;;;13.10;49.00;;;;;;5087354;28;20590;-68
2022/03/27 10:57:50;;;;;;;8.30;1.93;;;13.20;46.60;;;;;;5071034;28;20816;-69
2022/03/27 11:00:37;;;;;;;8.23;2.30;;;13.30;46.00;;;;;;5082536;28;20288;-69
2022/03/27 11:03:03;;;;;;;11.73;2.63;;;13.40;46.10;;;;;;5082930;28;20294;-69
2022/03/27 11:05:39;;;;;;;6.97;1.50;;;13.50;45.50;;;;;;5084508;28;20290;-68
2022/03/27 11:08:18;;;;;;;8.23;1.90;;;13.60;45.60;;;;;;5064019;28;20079;-68
2022/03/27 11:10:54;;;;;;;9.93;2.50;;;13.70;44.80;;;;;;5091604;28;20671;-68
2022/03/27 11:13:29;;;;;;;8.83;1.90;;;13.80;45.10;;;;;;5089185;28;20362;-68
2022/03/27 11:16:06;;;;;;;7.27;2.20;;;13.80;44.50;;;;;;5090614;28;20285;-68
2022/03/27 11:18:44;;;;;;;8.67;2.20;;;13.90;45.90;;;;;;5089508;28;20871;-68
2022/03/27 11:21:33;;;;;;;8.10;2.13;;;13.90;44.90;;;;;;5074736;28;20278;-68
2022/03/27 11:24:02;;;;;;;7.60;2.00;;;14.00;44.60;;;;;;5088993;28;20716;-68
2022/03/27 11:26:29;;;;;;;9.83;2.23;;;14.00;45.40;;;;;;5085175;28;20293;-67
2022/03/27 11:29:04;;;;;;;10.80;2.10;;;14.00;45.80;;;;;;5091237;28;20299;-67
2022/03/27 11:31:35;;;;;;;8.27;2.30;;;14.10;45.10;;;;;;5111353;27;20301;-67
2022/03/27 11:34:14;;;;;;;8.33;2.30;;;14.20;44.90;;;;;;5104610;28;20043;-68
2022/03/27 11:36:49;;;;;;;11.27;2.03;;;14.20;45.40;;;;;;5104998;28;20650;-68
2022/03/27 11:39:33;;;;;;;7.50;2.00;;;14.30;45.40;;;;;;5071551;28;20355;-68
2022/03/27 11:42:23;;;;;;;10.30;2.03;;;14.40;44.40;;;;;;5105810;27;20382;-68
2022/03/27 11:45:07;;;;;;;9.80;2.20;;;14.50;45.60;;;;;;5071666;28;20274;-68
2022/03/27 11:47:44;;;;;;;7.10;1.90;;;14.60;45.80;;;;;;5088678;28;20309;-68
2022/03/27 11:50:27;;;;;;;6.63;1.97;;;14.70;45.30;;;;;;5121886;27;20306;-68
2022/03/27 11:52:53;;;;;;;7.83;1.80;;;14.90;45.10;;;;;;5120553;27;20274;-68
2022/03/27 11:55:19;;;;;;;9.57;2.17;;;15.00;44.50;;;;;;5070951;28;20293;-68
2022/03/27 11:57:57;;;;;;;10.53;2.33;;;15.00;44.10;;;;;;5118386;27;20556;-68
2022/03/27 12:00:30;;;;;;;12.20;2.43;;;15.00;43.40;;;;;;5071295;28;20570;-68
2022/03/27 12:02:56;;;;;;;10.83;1.97;;;15.00;44.40;;;;;;5104458;28;20305;-68
2022/03/27 12:05:22;;;;;;;8.33;1.77;;;15.00;44.50;;;;;;5087670;28;20297;-68
2022/03/27 12:07:56;;;;;;;10.13;2.30;;;15.10;44.70;;;;;;5086048;28;20040;-68
2022/03/27 12:10:24;;;;;;;8.52;1.77;;;15.20;43.10;;;;;;5121003;27;20313;-68
2022/03/27 12:13:00;;;;;;;10.07;2.00;;;15.10;44.20;;;;;;5087689;28;20068;-68
2022/03/27 12:15:46;;;;;;;9.60;2.03;;;15.20;43.90;;;;;;5106706;27;20329;-67
2022/03/27 12:18:14;;;;;;;8.90;1.83;;;15.20;43.70;;;;;;5121370;27;20286;-68
2022/03/27 12:20:47;;;;;;;6.90;2.07;;;15.30;44.40;;;;;;5121117;27;20354;-67
2022/03/27 12:23:21;;;;;;;11.07;2.03;;;15.30;43.70;;;;;;5104552;28;20282;-68
2022/03/27 12:31:58;;;;;;;9.63;1.97;;;15.50;44.50;;;;;;5095860;28;20866;-67
2022/03/27 12:34:24;;;;;;;6.90;2.03;;;15.50;44.10;;;;;;5097977;28;20796;-67
2022/03/27 12:37:09;;;;;;;11.47;2.00;;;15.50;44.00;;;;;;5074796;27;20359;-68
2022/03/27 12:39:37;;;;;;;12.00;2.28;;;15.60;43.50;;;;;;5082210;28;20290;-68
2022/03/27 12:42:03;;;;;;;9.17;2.57;;;15.60;44.40;;;;;;5125052;27;20150;-68
2022/03/27 12:44:50;;;;;;;9.23;2.00;;;15.70;44.00;;;;;;5103334;27;20300;-68
2022/03/27 12:47:15;;;;;;;8.93;1.90;;;15.70;44.40;;;;;;5082939;27;20285;-68
2022/03/27 12:49:51;;;;;;;8.63;2.00;;;15.70;44.20;;;;;;5116306;27;20889;-68
2022/03/27 12:52:17;;;;;;;8.93;2.03;;;15.70;44.20;;;;;;5110933;27;20075;-68
2022/03/27 12:55:05;;;;;;;8.10;2.00;;;15.80;44.30;;;;;;5124882;27;20766;-68
2022/03/27 12:57:52;;;;;;;7.77;1.97;;;15.80;44.10;;;;;;5075772;27;20292;-68
2022/03/27 13:00:19;;;;;;;9.83;2.10;;;15.90;44.10;;;;;;5078049;27;20281;-68
2022/03/27 13:02:45;;;;;;;11.27;2.60;;;15.80;44.00;;;;;;5099512;27;20293;-68
2022/03/27 13:05:10;;;;;;;9.43;2.00;;;15.80;44.00;;;;;;5091024;27;20363;-68